Список аэропортов
Фактическая погода:

24 мая, 16:00
Температура: +17°C (+16.3*)
Ветер: северный 5 м/с
Давление: *760 мм
неб. 1500 м
разорв. обл.
Время (МСК)Темп. СВетерВлажностьДавлениеОблачностьОсадки
15:00+17С, 2 м/с36%1013 гПас прояснениями
16:00+17СЗ, 3 м/с34%1013 гПаоблачно
17:00+17С, 3 м/с32%1013 гПаоблачно
18:00+16С, 3 м/с32%1013 гПаоблачно
19:00+16С, 2 м/с32%1013 гПаоблачно
20:00+14СВ, 2 м/с39%1013 гПаясно
21:00+11СВ, 1 м/с55%1014 гПаясно
22:00+9В, 1 м/с64%1014 гПас прояснениями
23:00+8В, 2 м/с68%1014 гПас прояснениями
25 мая
00:00+7В, 2 м/с69%1014 гПаоблачно
01:00+6В, 2 м/с72%1014 гПамалооблачно
02:00+5В, 2 м/с78%1014 гПаясно
03:00+4В, 2 м/с82%1014 гПаясно
04:00+4В, 2 м/с84%1013 гПаясно
05:00+4В, 2 м/с78%1013 гПаясно
06:00+7В, 3 м/с64%1013 гПамалооблачно
07:00+10ЮВ, 4 м/с50%1012 гПамалооблачно
08:00+14ЮВ, 4 м/с42%1011 гПаясно
09:00+16ЮВ, 5 м/с41%1010 гПаоблачно
10:00+18ЮВ, 5 м/с41%1009 гПаоблачно
11:00+19В, 5 м/с41%1008 гПаоблачно
12:00+21ЮВ, 6 м/с40%1007 гПаоблачно
13:00+21ЮВ, 6 м/с45%1006 гПаоблачносл. дождь
14:00+20ЮВ, 6 м/с54%1005 гПаоблачнодождь
15:00+17ЮВ, 4 м/с82%1003 гПаоблачнодождь
16:00+17Ю, 4 м/с86%1002 гПаоблачнодождь
17:00+16ЮЗ, 6 м/с86%1002 гПаоблачнодождь
18:00+16ЮЗ, 4 м/с84%1001 гПаоблачно
19:00+16ЮЗ, 4 м/с82%1001 гПамалооблачно
20:00+15ЮЗ, 4 м/с82%1000 гПаясно
21:00+14ЮЗ, 6 м/с85%1001 гПас прояснениямидождь
22:00+13ЮЗ, 4 м/с88%1001 гПас прояснениями
23:00+12ЮЗ, 6 м/с87%1001 гПас прояснениями
26 мая
00:00+12ЮЗ, 5 м/с86%1000 гПас прояснениями
01:00+12ЮЗ, 5 м/с86%1000 гПаоблачно
02:00+13ЮЗ, 5 м/с83%1000 гПаоблачно
03:00+13З, 6 м/с79%1001 гПаоблачно
04:00+13З, 6 м/с76%1001 гПаоблачно
05:00+12З, 5 м/с81%1001 гПамалооблачно
06:00+12З, 5 м/с79%1002 гПаясно
07:00+14ЮЗ, 5 м/с75%1002 гПаясно
08:00+15ЮЗ, 5 м/с70%1002 гПаясно
09:00+16ЮЗ, 5 м/с62%1002 гПас прояснениями
10:00+18ЮЗ, 5 м/с58%1002 гПаоблачно
11:00+18ЮЗ, 6 м/с58%1001 гПаоблачносл. дождь
12:00+19ЮЗ, 6 м/с60%1000 гПаоблачносл. дождь
13:00+18ЮЗ, 6 м/с62%1000 гПаоблачнодождь
14:00+18ЮЗ, 6 м/с64%1000 гПаоблачнодождь
15:00+17ЮЗ, 6 м/с74%999 гПаоблачнодождь